Time;durP1;ratioP1;P1;durP2;ratioP2;P2;SDS_P1;SDS_P2;PMS_P1;PMS_P2;Temp;Humidity;BMP_temperature;BMP_pressure;BME280_temperature;BME280_humidity;BME280_pressure;Samples;Min_cycle;Max_cycle;Signal;HPM_P1;HPM_P2
2023/01/31 00:01:20;;;;;;;27.67;8.10;;;4.60;99.90;;;;;;5014642;28;20195;-65
2023/01/31 00:03:47;;;;;;;17.10;8.33;;;4.50;99.90;;;;;;5014949;28;20168;-65
2023/01/31 00:06:16;;;;;;;20.73;8.27;;;4.50;99.90;;;;;;5015022;28;20175;-66
2023/01/31 00:08:42;;;;;;;31.33;8.67;;;4.50;99.90;;;;;;5030336;28;20176;-65
2023/01/31 00:11:09;;;;;;;18.90;8.30;;;4.50;99.90;;;;;;5014955;28;20199;-66
2023/01/31 00:13:35;;;;;;;21.27;8.97;;;4.50;99.90;;;;;;5014840;28;20206;-65
2023/01/31 00:16:01;;;;;;;21.33;8.90;;;4.40;99.90;;;;;;5029876;28;20534;-66
2023/01/31 00:18:27;;;;;;;16.63;7.87;;;4.40;99.90;;;;;;5014700;28;20172;-65
2023/01/31 00:20:53;;;;;;;16.30;7.90;;;4.40;99.90;;;;;;5014741;28;20179;-65
2023/01/31 00:23:19;;;;;;;25.83;9.80;;;4.50;99.90;;;;;;5014807;28;20182;-65
2023/01/31 00:25:44;;;;;;;21.53;8.13;;;4.40;99.90;;;;;;5014667;28;20184;-66
2023/01/31 00:28:10;;;;;;;19.87;8.70;;;4.50;99.90;;;;;;5014630;28;20175;-65
2023/01/31 00:30:36;;;;;;;20.57;8.77;;;4.40;99.90;;;;;;5014936;28;20619;-65
2023/01/31 00:33:01;;;;;;;21.10;9.20;;;4.40;99.90;;;;;;5014620;28;20202;-65
2023/01/31 00:35:27;;;;;;;21.27;8.10;;;4.50;99.90;;;;;;5015110;28;20246;-65
2023/01/31 00:37:53;;;;;;;26.27;9.10;;;4.40;99.90;;;;;;5015289;28;20180;-65
2023/01/31 00:40:19;;;;;;;24.70;9.03;;;4.40;99.90;;;;;;5016550;28;20163;-65
2023/01/31 00:42:45;;;;;;;22.83;9.47;;;4.30;99.90;;;;;;5016248;28;20200;-65
2023/01/31 00:45:11;;;;;;;21.07;8.70;;;4.30;99.90;;;;;;5016291;28;20219;-65
2023/01/31 00:47:37;;;;;;;20.80;9.63;;;4.30;99.90;;;;;;5015321;28;20658;-65
2023/01/31 00:50:03;;;;;;;25.83;8.57;;;4.30;99.90;;;;;;5014682;28;20176;-65
2023/01/31 00:52:28;;;;;;;21.67;8.07;;;4.20;99.90;;;;;;5014512;28;20203;-65
2023/01/31 00:54:54;;;;;;;17.63;8.10;;;4.20;99.90;;;;;;5029491;28;20207;-66
2023/01/31 00:57:20;;;;;;;20.40;8.53;;;4.10;99.90;;;;;;5029235;28;20176;-65
2023/01/31 00:59:46;;;;;;;23.83;8.27;;;4.10;99.90;;;;;;5014146;28;20188;-65
2023/01/31 01:02:11;;;;;;;32.37;8.77;;;4.10;99.90;;;;;;5014025;28;20282;-65
2023/01/31 01:04:37;;;;;;;26.77;8.97;;;4.10;99.90;;;;;;5014092;28;20172;-65
2023/01/31 01:07:03;;;;;;;29.30;8.93;;;4.10;99.90;;;;;;5014401;28;20640;-65
2023/01/31 01:09:28;;;;;;;20.67;8.40;;;4.10;99.90;;;;;;5029667;28;20659;-65
2023/01/31 01:11:54;;;;;;;23.80;9.03;;;4.10;99.90;;;;;;5013984;28;20204;-65
2023/01/31 01:14:20;;;;;;;33.50;8.40;;;4.10;99.90;;;;;;5013163;28;20204;-65
2023/01/31 01:16:46;;;;;;;24.73;8.47;;;4.10;99.90;;;;;;5013889;28;20199;-65
2023/01/31 01:19:15;;;;;;;26.47;8.17;;;4.20;99.90;;;;;;5013679;28;20168;-65
2023/01/31 01:21:43;;;;;;;24.93;8.93;;;4.20;99.90;;;;;;5013639;28;20187;-65
2023/01/31 01:24:14;;;;;;;22.90;8.33;;;4.20;99.90;;;;;;5013723;28;20167;-65
2023/01/31 01:26:40;;;;;;;25.37;8.47;;;4.20;99.90;;;;;;5014095;28;20688;-65
2023/01/31 01:29:06;;;;;;;26.67;8.30;;;4.20;99.90;;;;;;5013740;28;20258;-66
2023/01/31 01:31:32;;;;;;;23.00;8.40;;;4.20;99.90;;;;;;5028884;28;20222;-66
2023/01/31 01:34:04;;;;;;;17.53;8.67;;;4.20;99.90;;;;;;5013874;28;20675;-65
2023/01/31 01:36:35;;;;;;;22.83;9.17;;;4.20;99.90;;;;;;5013718;28;20283;-65
2023/01/31 01:39:02;;;;;;;19.90;8.23;;;4.30;99.90;;;;;;5013918;28;20643;-65
2023/01/31 01:41:32;;;;;;;14.57;7.57;;;4.30;99.90;;;;;;5013748;28;20242;-66
2023/01/31 01:43:59;;;;;;;17.93;7.30;;;4.30;99.90;;;;;;5014142;28;20246;-65
2023/01/31 01:46:45;;;;;;;26.10;8.07;;;4.30;99.90;;;;;;5013547;28;20238;-65
2023/01/31 01:49:17;;;;;;;19.43;7.63;;;4.40;99.90;;;;;;5013397;28;20195;-65
2023/01/31 01:51:45;;;;;;;21.67;8.20;;;4.30;99.90;;;;;;5012263;28;20237;-65
2023/01/31 01:54:28;;;;;;;22.07;8.30;;;4.30;99.90;;;;;;5014234;28;20203;-65
2023/01/31 01:56:58;;;;;;;20.33;8.03;;;4.30;99.90;;;;;;5013613;28;20191;-66
2023/01/31 01:59:32;;;;;;;22.63;8.93;;;4.30;99.90;;;;;;5013301;28;20280;-65
2023/01/31 02:01:58;;;;;;;18.97;8.20;;;4.20;99.90;;;;;;5013384;28;20200;-65
2023/01/31 02:04:29;;;;;;;25.67;9.23;;;4.20;99.90;;;;;;5013357;28;20531;-65
2023/01/31 02:06:55;;;;;;;21.43;7.57;;;4.20;99.90;;;;;;5014030;28;20210;-65
2023/01/31 02:09:38;;;;;;;25.17;8.07;;;4.10;99.90;;;;;;5013621;28;20165;-65
2023/01/31 02:12:04;;;;;;;21.00;8.57;;;4.10;99.90;;;;;;5028487;28;20211;-65
2023/01/31 02:14:30;;;;;;;17.23;7.63;;;4.00;99.90;;;;;;5028477;28;20203;-65
2023/01/31 02:16:56;;;;;;;19.63;8.97;;;4.00;99.90;;;;;;5028407;28;20568;-65
2023/01/31 02:19:28;;;;;;;26.13;9.00;;;3.90;99.90;;;;;;5011877;28;20191;-65
2023/01/31 02:22:32;;;;;;;21.47;9.00;;;3.90;99.90;;;;;;5013288;28;20200;-65
2023/01/31 02:25:25;;;;;;;17.80;8.80;;;3.90;99.90;;;;;;5003183;28;20636;-65
2023/01/31 02:28:12;;;;;;;25.70;9.30;;;3.90;99.90;;;;;;5016860;28;20180;-65
2023/01/31 02:30:57;;;;;;;28.80;8.17;;;3.90;99.90;;;;;;5016796;28;20532;-65
2023/01/31 02:33:45;;;;;;;23.93;8.70;;;4.00;99.90;;;;;;5016527;28;20231;-65
2023/01/31 02:36:46;;;;;;;22.30;8.50;;;3.90;99.90;;;;;;5016976;28;20243;-65
2023/01/31 02:39:33;;;;;;;25.77;8.27;;;4.00;99.90;;;;;;5016863;28;20234;-65
2023/01/31 02:42:17;;;;;;;17.37;7.80;;;4.00;99.90;;;;;;5015269;28;20207;-65
2023/01/31 02:45:10;;;;;;;20.20;7.90;;;4.00;99.90;;;;;;5031689;28;20176;-65
2023/01/31 02:48:03;;;;;;;25.07;8.80;;;4.00;99.90;;;;;;4995840;28;20224;-65
2023/01/31 02:50:43;;;;;;;21.20;8.53;;;4.00;99.90;;;;;;5016448;28;20164;-65
2023/01/31 02:53:24;;;;;;;19.03;8.07;;;4.00;99.90;;;;;;5016599;28;20210;-65
2023/01/31 02:59:03;;;;;;;19.73;7.87;;;4.00;99.90;;;;;;5016903;28;20566;-65
2023/01/31 03:01:32;;;;;;;20.73;8.23;;;4.00;99.90;;;;;;5016229;28;20203;-65
2023/01/31 03:04:03;;;;;;;20.73;8.63;;;4.00;99.90;;;;;;5016008;28;20180;-65
2023/01/31 03:06:34;;;;;;;16.57;7.97;;;4.00;99.90;;;;;;5016223;28;20200;-65
2023/01/31 03:09:29;;;;;;;16.93;7.90;;;4.00;99.90;;;;;;5016076;28;20180;-65
2023/01/31 03:12:18;;;;;;;21.47;8.37;;;4.00;99.90;;;;;;5016136;28;20633;-65
2023/01/31 03:14:53;;;;;;;25.00;8.13;;;4.00;99.90;;;;;;5016118;28;20682;-65
2023/01/31 03:17:30;;;;;;;20.90;8.10;;;4.00;99.90;;;;;;5015844;28;20184;-65
2023/01/31 03:20:19;;;;;;;20.37;7.47;;;3.90;99.90;;;;;;5015769;28;20241;-65
2023/01/31 03:22:53;;;;;;;23.43;7.63;;;3.90;99.90;;;;;;5016004;28;20234;-65
2023/01/31 03:25:22;;;;;;;19.20;8.33;;;3.90;99.90;;;;;;5016082;28;20175;-65
2023/01/31 03:27:54;;;;;;;15.07;7.67;;;4.00;99.90;;;;;;5015708;28;20180;-65
2023/01/31 03:30:33;;;;;;;26.33;8.37;;;3.90;99.90;;;;;;5015932;28;20168;-65
2023/01/31 03:33:07;;;;;;;18.93;7.83;;;3.90;99.90;;;;;;5015491;28;20207;-65
2023/01/31 03:35:37;;;;;;;16.43;8.50;;;3.80;99.90;;;;;;5015220;28;20159;-65
2023/01/31 03:38:34;;;;;;;23.73;8.10;;;3.80;99.90;;;;;;5016124;28;20505;-65
2023/01/31 03:41:03;;;;;;;21.80;8.63;;;3.80;99.90;;;;;;5014096;28;20175;-65
2023/01/31 03:43:45;;;;;;;25.37;8.00;;;3.80;99.90;;;;;;5015419;28;20176;-65
2023/01/31 03:46:15;;;;;;;18.23;7.70;;;3.70;99.90;;;;;;5030569;28;20188;-65
2023/01/31 03:48:47;;;;;;;29.10;9.17;;;3.70;99.90;;;;;;5030490;28;20682;-65
2023/01/31 03:51:18;;;;;;;16.57;8.23;;;3.70;99.90;;;;;;5015275;28;20200;-65
2023/01/31 03:53:51;;;;;;;20.27;8.00;;;3.70;99.90;;;;;;5015247;28;20730;-65
2023/01/31 03:56:25;;;;;;;15.60;8.17;;;3.70;99.90;;;;;;5015513;28;20148;-65
2023/01/31 03:58:57;;;;;;;19.10;7.97;;;3.70;99.90;;;;;;5015495;28;20163;-65
2023/01/31 04:01:27;;;;;;;24.97;7.57;;;3.60;99.90;;;;;;5030223;28;20200;-65
2023/01/31 04:04:01;;;;;;;16.07;7.27;;;3.60;99.90;;;;;;5030112;28;20186;-65
2023/01/31 04:06:27;;;;;;;16.07;7.70;;;3.70;99.90;;;;;;5015258;28;20162;-65
2023/01/31 04:08:53;;;;;;;24.53;8.33;;;3.70;99.90;;;;;;5015294;28;20259;-65
2023/01/31 04:11:23;;;;;;;23.00;8.30;;;3.70;99.90;;;;;;5014831;28;20199;-65
2023/01/31 04:13:48;;;;;;;13.73;7.03;;;3.70;99.90;;;;;;5013711;28;20199;-65
2023/01/31 04:16:15;;;;;;;24.30;8.53;;;3.70;99.90;;;;;;5019884;28;20648;-65
2023/01/31 04:18:40;;;;;;;13.77;7.47;;;3.80;99.90;;;;;;5005239;28;20179;-65
2023/01/31 04:21:06;;;;;;;15.67;7.50;;;3.80;99.90;;;;;;5029717;28;20699;-65
2023/01/31 04:23:32;;;;;;;20.57;7.67;;;3.80;99.90;;;;;;5014750;28;20172;-64
2023/01/31 04:25:58;;;;;;;23.27;7.40;;;3.80;99.90;;;;;;5015318;28;20567;-65
2023/01/31 04:28:23;;;;;;;21.37;8.03;;;3.80;99.90;;;;;;5014611;28;20639;-65
2023/01/31 04:30:53;;;;;;;20.87;7.77;;;3.80;99.90;;;;;;5014892;28;20183;-65
2023/01/31 04:33:19;;;;;;;27.53;8.20;;;3.80;99.90;;;;;;5014329;28;20176;-65
2023/01/31 04:35:45;;;;;;;30.30;8.27;;;3.80;99.90;;;;;;5014816;28;20165;-65
2023/01/31 04:38:11;;;;;;;20.50;8.33;;;3.70;99.90;;;;;;5014949;28;20176;-65
2023/01/31 04:40:36;;;;;;;19.93;8.00;;;3.70;99.90;;;;;;5014313;28;20168;-65
2023/01/31 04:43:02;;;;;;;23.83;8.27;;;3.80;99.90;;;;;;5029503;28;20207;-65
2023/01/31 04:45:28;;;;;;;23.73;8.17;;;3.80;99.90;;;;;;5012845;28;20188;-65
2023/01/31 04:47:53;;;;;;;12.80;7.07;;;3.80;99.90;;;;;;5014313;28;20172;-65
2023/01/31 04:50:19;;;;;;;20.93;7.33;;;3.80;99.90;;;;;;5014175;28;20214;-65
2023/01/31 04:52:49;;;;;;;21.97;8.43;;;3.80;99.90;;;;;;5029328;28;20672;-65
2023/01/31 04:55:15;;;;;;;14.37;7.80;;;3.70;99.90;;;;;;5029097;28;20204;-65
2023/01/31 04:57:41;;;;;;;20.10;7.57;;;3.70;99.90;;;;;;5014368;28;20199;-65
2023/01/31 05:00:08;;;;;;;25.40;8.60;;;3.70;99.90;;;;;;5013935;28;20233;-65
2023/01/31 05:02:33;;;;;;;16.80;8.03;;;3.70;99.90;;;;;;5012848;28;20196;-65
2023/01/31 05:05:00;;;;;;;15.80;8.00;;;3.70;99.90;;;;;;5028999;28;20186;-65
2023/01/31 05:07:26;;;;;;;26.03;8.43;;;3.70;99.90;;;;;;5014665;28;20156;-67
2023/01/31 05:09:51;;;;;;;23.67;8.27;;;3.70;99.90;;;;;;5029257;28;20627;-67
2023/01/31 05:12:17;;;;;;;24.70;8.70;;;3.70;99.90;;;;;;5014127;28;20195;-67
2023/01/31 05:14:43;;;;;;;25.10;8.73;;;3.70;99.90;;;;;;5012630;28;20290;-67
2023/01/31 05:17:08;;;;;;;15.80;7.80;;;3.80;99.90;;;;;;5028981;28;20184;-66
2023/01/31 05:19:34;;;;;;;23.00;8.90;;;3.70;99.90;;;;;;5013962;28;20652;-66
2023/01/31 05:22:00;;;;;;;15.17;8.73;;;3.70;99.90;;;;;;5014110;28;20191;-64
2023/01/31 05:24:29;;;;;;;18.80;9.00;;;3.70;99.90;;;;;;5014365;28;20175;-64
2023/01/31 05:26:57;;;;;;;16.30;8.23;;;3.70;99.90;;;;;;5028818;28;20198;-64
2023/01/31 05:29:27;;;;;;;14.47;7.67;;;3.60;99.90;;;;;;5013710;28;20160;-66
2023/01/31 05:31:54;;;;;;;22.80;9.10;;;3.60;99.90;;;;;;5013593;28;20637;-66
2023/01/31 05:34:21;;;;;;;24.30;8.70;;;3.60;99.90;;;;;;5013578;28;20287;-66
2023/01/31 05:36:47;;;;;;;23.97;8.73;;;3.60;99.90;;;;;;5014256;28;20157;-66
2023/01/31 05:39:13;;;;;;;17.37;8.63;;;3.60;99.90;;;;;;5012416;28;20270;-68
2023/01/31 05:41:39;;;;;;;21.17;9.23;;;3.60;99.90;;;;;;5013561;28;20226;-63
2023/01/31 05:44:04;;;;;;;19.30;9.07;;;3.60;99.90;;;;;;5013528;28;20190;-63
2023/01/31 05:46:30;;;;;;;29.40;10.40;;;3.60;99.90;;;;;;5013510;28;20184;-63
2023/01/31 05:48:57;;;;;;;24.47;10.53;;;3.70;99.90;;;;;;5013450;28;20304;-63
2023/01/31 05:51:23;;;;;;;24.70;9.73;;;3.70;99.90;;;;;;5013369;28;20192;-63
2023/01/31 05:53:48;;;;;;;22.10;10.37;;;3.70;99.90;;;;;;5013727;28;20612;-63
2023/01/31 05:56:15;;;;;;;24.83;10.67;;;3.80;99.90;;;;;;5012343;28;20176;-63
2023/01/31 05:58:41;;;;;;;25.67;10.43;;;3.80;99.90;;;;;;5013662;28;20218;-63
2023/01/31 06:01:07;;;;;;;24.50;11.20;;;3.90;99.90;;;;;;5017440;28;20187;-64
2023/01/31 06:03:33;;;;;;;20.80;9.17;;;3.90;99.90;;;;;;5017485;28;20238;-63
2023/01/31 06:05:59;;;;;;;24.90;11.77;;;4.00;99.90;;;;;;5017189;28;20652;-63
2023/01/31 06:08:24;;;;;;;20.57;10.20;;;3.90;99.90;;;;;;5032303;28;20656;-63
2023/01/31 06:10:50;;;;;;;24.53;10.53;;;3.90;99.90;;;;;;5017114;28;20180;-63
2023/01/31 06:13:16;;;;;;;32.40;11.80;;;3.90;99.90;;;;;;5015625;28;20179;-63
2023/01/31 06:15:43;;;;;;;35.27;12.50;;;3.90;99.90;;;;;;5016978;28;20628;-63
2023/01/31 06:18:08;;;;;;;27.67;12.23;;;3.90;99.90;;;;;;5017171;28;20172;-63
2023/01/31 06:20:34;;;;;;;25.27;11.80;;;3.90;99.90;;;;;;5016798;28;20180;-63
2023/01/31 06:23:00;;;;;;;23.93;11.33;;;3.90;99.90;;;;;;5016817;28;20242;-63
2023/01/31 06:25:26;;;;;;;39.90;13.57;;;4.00;99.90;;;;;;5015446;28;20555;-63
2023/01/31 06:27:54;;;;;;;29.73;13.20;;;3.90;99.90;;;;;;5015481;28;20543;-63
2023/01/31 06:30:20;;;;;;;25.80;12.40;;;4.00;99.90;;;;;;5017270;28;20180;-63
2023/01/31 06:32:46;;;;;;;27.60;13.10;;;4.00;99.90;;;;;;5016587;28;20693;-63
2023/01/31 06:35:11;;;;;;;22.07;13.10;;;4.00;99.90;;;;;;5031773;28;20199;-63
2023/01/31 06:37:37;;;;;;;25.20;12.60;;;4.00;99.90;;;;;;5016644;28;20577;-63
2023/01/31 06:40:03;;;;;;;26.40;12.03;;;4.00;99.90;;;;;;5016721;28;20176;-63
2023/01/31 06:42:29;;;;;;;19.50;12.07;;;4.00;99.90;;;;;;5017027;28;20215;-63
2023/01/31 06:44:55;;;;;;;26.37;11.87;;;4.00;99.90;;;;;;5031987;28;20211;-63
2023/01/31 06:47:20;;;;;;;26.40;12.07;;;4.10;99.90;;;;;;5017866;28;20180;-62
2023/01/31 06:49:46;;;;;;;31.87;12.20;;;4.10;99.90;;;;;;5016957;28;20648;-63
2023/01/31 06:52:12;;;;;;;24.13;12.43;;;4.10;99.90;;;;;;5015369;28;20228;-63
2023/01/31 06:54:38;;;;;;;25.90;12.53;;;4.10;99.90;;;;;;5016231;28;20200;-63
2023/01/31 06:57:03;;;;;;;29.37;12.40;;;4.20;99.90;;;;;;5014972;28;20179;-63
2023/01/31 06:59:30;;;;;;;24.30;12.00;;;4.10;99.90;;;;;;5016110;28;20184;-62
2023/01/31 07:01:56;;;;;;;21.53;11.77;;;4.20;99.90;;;;;;5016440;28;20279;-63
2023/01/31 07:04:22;;;;;;;27.60;12.77;;;4.20;99.90;;;;;;5016501;28;20218;-63
2023/01/31 07:06:47;;;;;;;33.57;12.37;;;4.20;99.90;;;;;;5016381;28;20225;-63
2023/01/31 07:09:13;;;;;;;22.87;11.40;;;4.20;99.90;;;;;;5016015;28;20172;-63
2023/01/31 07:11:39;;;;;;;24.37;12.17;;;4.30;99.90;;;;;;5016314;28;20195;-62
2023/01/31 07:14:04;;;;;;;26.40;13.20;;;4.30;99.90;;;;;;5016154;28;20235;-62
2023/01/31 07:16:30;;;;;;;24.97;10.77;;;4.40;99.90;;;;;;5014535;28;20644;-62
2023/01/31 07:18:56;;;;;;;23.13;10.03;;;4.50;99.90;;;;;;5015950;28;20172;-63
2023/01/31 07:21:23;;;;;;;24.17;11.27;;;4.50;99.90;;;;;;5015912;28;20690;-62
2023/01/31 07:23:49;;;;;;;21.40;10.97;;;4.60;99.90;;;;;;5015640;28;20222;-62
2023/01/31 07:26:15;;;;;;;23.23;11.50;;;4.60;99.90;;;;;;5015626;28;20186;-62
2023/01/31 07:28:40;;;;;;;23.10;11.03;;;4.60;99.90;;;;;;5015854;28;20168;-63
2023/01/31 07:31:10;;;;;;;24.93;11.17;;;4.60;99.90;;;;;;5015455;28;20258;-63
2023/01/31 07:33:37;;;;;;;26.07;10.67;;;4.60;99.90;;;;;;5015614;28;20200;-63
2023/01/31 07:36:04;;;;;;;22.60;10.37;;;4.70;99.90;;;;;;5015737;28;20708;-62
2023/01/31 07:38:31;;;;;;;26.07;10.97;;;4.70;99.90;;;;;;5015348;28;20168;-62
2023/01/31 07:40:59;;;;;;;29.77;11.93;;;4.70;99.90;;;;;;5015319;28;20283;-62
2023/01/31 07:43:26;;;;;;;33.07;11.60;;;4.70;99.90;;;;;;5015255;28;20176;-62
2023/01/31 07:45:52;;;;;;;22.87;10.77;;;4.70;99.90;;;;;;5015232;28;20172;-62
2023/01/31 07:48:22;;;;;;;24.03;11.53;;;4.70;99.90;;;;;;5015549;28;20703;-62
2023/01/31 07:51:08;;;;;;;29.40;11.10;;;4.70;99.90;;;;;;5015056;28;20176;-63
2023/01/31 07:53:40;;;;;;;30.17;11.60;;;4.70;99.90;;;;;;5015389;28;20722;-62
2023/01/31 07:56:09;;;;;;;21.00;9.80;;;4.70;99.90;;;;;;5015413;28;20155;-62
2023/01/31 07:58:37;;;;;;;23.57;11.63;;;4.70;99.90;;;;;;5013728;28;20184;-62
2023/01/31 08:03:48;;;;;;;27.07;11.07;;;4.70;99.90;;;;;;5014858;28;20167;-63
2023/01/31 08:06:13;;;;;;;22.07;11.23;;;4.70;99.90;;;;;;5013533;28;20183;-63
2023/01/31 08:08:40;;;;;;;23.63;10.67;;;4.80;99.90;;;;;;5015136;28;20314;-63
2023/01/31 08:11:07;;;;;;;30.87;12.23;;;4.70;99.90;;;;;;5015234;28;20223;-63
2023/01/31 08:13:37;;;;;;;26.13;11.17;;;4.70;99.90;;;;;;5014721;28;20631;-63
2023/01/31 08:16:05;;;;;;;25.03;10.60;;;4.70;99.90;;;;;;5029994;28;20186;-63
2023/01/31 08:18:32;;;;;;;26.70;11.00;;;4.70;99.90;;;;;;5014760;28;20176;-63
2023/01/31 08:20:58;;;;;;;21.00;10.70;;;4.70;99.90;;;;;;5014453;28;20176;-63
2023/01/31 08:23:25;;;;;;;25.30;11.67;;;4.80;99.90;;;;;;5012891;28;20750;-63
2023/01/31 08:25:51;;;;;;;23.50;11.30;;;4.80;99.90;;;;;;5014491;28;20179;-63
2023/01/31 08:28:17;;;;;;;26.03;11.33;;;4.80;99.90;;;;;;5015025;28;20222;-63
2023/01/31 08:30:43;;;;;;;20.23;10.77;;;4.80;99.90;;;;;;5029706;28;20618;-63
2023/01/31 08:33:10;;;;;;;21.70;10.53;;;4.80;99.90;;;;;;5029942;28;20571;-63
2023/01/31 08:35:37;;;;;;;28.87;11.80;;;4.80;99.90;;;;;;5014202;28;20258;-63
2023/01/31 08:38:03;;;;;;;24.17;10.47;;;4.80;99.90;;;;;;5029564;28;20183;-63
2023/01/31 08:40:31;;;;;;;21.60;11.10;;;4.80;99.90;;;;;;5014218;28;20194;-63
2023/01/31 08:42:57;;;;;;;23.30;10.67;;;4.80;99.90;;;;;;5029258;28;20249;-63
2023/01/31 08:45:24;;;;;;;20.03;10.63;;;4.80;99.90;;;;;;5014427;28;20190;-63
2023/01/31 08:47:55;;;;;;;32.53;11.37;;;4.80;99.90;;;;;;5029215;28;20180;-62
2023/01/31 08:50:22;;;;;;;25.33;10.40;;;4.80;99.90;;;;;;5014216;28;20223;-62
2023/01/31 08:52:55;;;;;;;24.33;10.63;;;4.80;99.90;;;;;;5014062;28;20288;-63
2023/01/31 08:55:23;;;;;;;24.27;11.10;;;4.90;99.90;;;;;;5014002;28;20199;-63
2023/01/31 08:57:49;;;;;;;23.30;9.80;;;4.90;99.90;;;;;;5014036;28;20172;-62
2023/01/31 09:00:16;;;;;;;23.77;10.50;;;4.90;99.90;;;;;;5013913;28;20193;-64
2023/01/31 09:02:42;;;;;;;19.63;10.03;;;4.90;99.90;;;;;;5013950;28;20208;-63
2023/01/31 09:05:08;;;;;;;22.97;10.23;;;5.00;99.90;;;;;;5012622;28;20184;-63
2023/01/31 09:07:34;;;;;;;31.83;10.90;;;4.90;99.90;;;;;;5013957;28;20182;-63
2023/01/31 09:10:00;;;;;;;22.50;8.90;;;4.80;99.90;;;;;;5013906;28;20263;-63
2023/01/31 09:12:25;;;;;;;21.93;11.50;;;4.70;99.90;;;;;;5028915;28;20228;-63
2023/01/31 09:14:51;;;;;;;23.73;9.73;;;4.60;99.90;;;;;;5028913;28;20196;-63
2023/01/31 09:17:18;;;;;;;17.27;9.10;;;4.60;99.90;;;;;;5013689;28;20207;-62
2023/01/31 09:19:44;;;;;;;25.03;8.97;;;4.60;99.90;;;;;;5013657;28;20171;-63
2023/01/31 09:22:10;;;;;;;22.23;9.53;;;4.50;99.90;;;;;;5028788;28;20672;-62
2023/01/31 09:24:35;;;;;;;20.77;9.50;;;4.50;99.90;;;;;;5013682;28;20250;-62
2023/01/31 09:27:01;;;;;;;25.37;9.67;;;4.50;99.90;;;;;;5013607;28;20176;-62
2023/01/31 09:29:28;;;;;;;25.10;9.50;;;4.60;99.90;;;;;;5013681;28;20547;-63
2023/01/31 09:31:54;;;;;;;20.97;9.90;;;4.50;99.90;;;;;;5013583;28;20192;-62
2023/01/31 09:34:21;;;;;;;17.03;9.70;;;4.50;99.90;;;;;;5012708;28;20203;-63
2023/01/31 09:36:47;;;;;;;14.87;8.33;;;4.50;99.90;;;;;;5013853;28;20184;-63
2023/01/31 09:39:12;;;;;;;17.93;8.93;;;4.50;99.90;;;;;;5013497;28;20273;-63
2023/01/31 09:41:50;;;;;;;19.50;9.93;;;4.50;99.90;;;;;;5013658;28;20199;-63
2023/01/31 09:44:22;;;;;;;19.70;8.90;;;4.40;99.90;;;;;;5013593;28;20565;-63
2023/01/31 09:47:02;;;;;;;25.03;9.97;;;4.40;99.90;;;;;;5013482;28;20191;-63
2023/01/31 09:49:31;;;;;;;16.67;9.07;;;4.40;99.90;;;;;;5013804;28;20160;-62
2023/01/31 09:52:03;;;;;;;19.43;9.77;;;4.30;99.90;;;;;;5013761;28;20191;-62
2023/01/31 09:54:39;;;;;;;20.37;9.50;;;4.30;99.90;;;;;;5028714;28;20208;-63
2023/01/31 09:57:11;;;;;;;21.47;9.20;;;4.30;99.90;;;;;;5013594;28;20168;-63
2023/01/31 10:00:21;;;;;;;24.47;10.07;;;4.30;99.90;;;;;;5012020;28;20195;-62
2023/01/31 10:03:25;;;;;;;17.33;9.07;;;4.30;99.90;;;;;;4952865;29;20693;-62
2023/01/31 10:05:53;;;;;;;20.23;9.33;;;4.30;99.90;;;;;;5013462;28;20160;-66
2023/01/31 10:08:40;;;;;;;18.60;9.07;;;4.30;99.90;;;;;;5013364;28;20253;-66
2023/01/31 10:11:15;;;;;;;25.47;9.77;;;4.30;99.90;;;;;;5013637;28;20635;-66
2023/01/31 10:13:54;;;;;;;23.83;9.73;;;4.30;99.90;;;;;;5012099;28;20282;-66
2023/01/31 10:16:29;;;;;;;17.50;9.20;;;4.40;99.90;;;;;;5013238;28;20183;-66
2023/01/31 10:19:13;;;;;;;17.57;9.03;;;4.50;99.90;;;;;;5013131;28;20163;-65
2023/01/31 10:21:44;;;;;;;19.90;8.93;;;4.50;99.90;;;;;;5013961;28;20517;-66
2023/01/31 10:24:10;;;;;;;16.70;8.60;;;4.50;99.90;;;;;;5013606;28;20647;-66
2023/01/31 10:26:39;;;;;;;18.23;8.63;;;4.50;99.90;;;;;;5013435;28;20254;-66
2023/01/31 10:29:14;;;;;;;18.47;9.03;;;4.50;99.90;;;;;;5028276;28;20184;-66
2023/01/31 10:31:45;;;;;;;13.87;8.57;;;4.50;99.90;;;;;;5013233;28;20685;-66
2023/01/31 10:34:22;;;;;;;14.63;8.33;;;4.50;99.90;;;;;;5012959;28;20274;-66
2023/01/31 10:36:58;;;;;;;24.97;9.87;;;4.50;99.90;;;;;;5013120;28;20175;-66
2023/01/31 10:39:31;;;;;;;19.77;10.07;;;4.40;99.90;;;;;;5028301;28;20164;-66
2023/01/31 10:42:13;;;;;;;17.20;8.77;;;4.40;99.90;;;;;;5013457;28;20183;-66
2023/01/31 10:44:53;;;;;;;25.87;10.43;;;4.40;99.90;;;;;;5013114;28;20675;-66
2023/01/31 10:47:21;;;;;;;24.53;9.77;;;4.40;99.90;;;;;;5012856;28;20188;-66
2023/01/31 10:49:48;;;;;;;16.67;9.70;;;4.40;99.90;;;;;;4996744;28;20664;-66
2023/01/31 10:52:32;;;;;;;17.50;9.30;;;4.40;99.90;;;;;;4996806;28;20219;-66
2023/01/31 10:55:36;;;;;;;19.77;9.83;;;4.50;99.90;;;;;;4996911;28;20211;-66
2023/01/31 10:58:02;;;;;;;11.50;9.20;;;4.50;99.90;;;;;;4975143;28;20227;-66
2023/01/31 11:00:31;;;;;;;23.03;10.27;;;4.50;99.90;;;;;;5003072;28;20232;-66
2023/01/31 11:02:58;;;;;;;20.83;9.70;;;4.50;99.90;;;;;;4996517;28;20688;-66
2023/01/31 11:05:27;;;;;;;19.83;9.87;;;4.50;99.90;;;;;;4996471;28;20200;-66
2023/01/31 11:07:59;;;;;;;17.63;9.73;;;4.60;99.90;;;;;;5011639;28;20185;-66
2023/01/31 11:10:28;;;;;;;16.27;9.77;;;4.60;99.90;;;;;;4995219;28;20181;-66
2023/01/31 11:13:00;;;;;;;19.17;9.90;;;4.60;99.90;;;;;;4996442;28;20691;-66
2023/01/31 11:15:28;;;;;;;13.23;9.30;;;4.60;99.90;;;;;;4999811;28;20253;-66
2023/01/31 11:17:59;;;;;;;19.33;10.00;;;4.60;99.90;;;;;;5015947;28;20194;-66
2023/01/31 11:20:34;;;;;;;13.43;9.90;;;4.60;99.90;;;;;;5015723;28;20168;-66
2023/01/31 11:23:02;;;;;;;15.83;10.10;;;4.60;99.90;;;;;;5016270;28;20183;-66
2023/01/31 11:25:30;;;;;;;18.70;10.70;;;4.60;99.90;;;;;;5015806;28;20194;-67
2023/01/31 11:28:00;;;;;;;10.57;9.40;;;4.60;99.90;;;;;;5015709;28;20172;-67
2023/01/31 11:30:36;;;;;;;22.10;10.20;;;4.60;99.90;;;;;;5015670;28;20704;-67
2023/01/31 11:33:03;;;;;;;11.83;9.03;;;4.60;99.90;;;;;;5015967;28;20286;-67
2023/01/31 11:35:33;;;;;;;10.93;9.20;;;4.70;99.90;;;;;;5015444;28;20199;-67
2023/01/31 11:38:22;;;;;;;12.10;9.73;;;4.70;99.90;;;;;;5030813;28;20263;-66
2023/01/31 11:40:48;;;;;;;14.17;9.37;;;4.70;99.90;;;;;;5015786;28;20160;-66
2023/01/31 11:43:13;;;;;;;17.93;9.63;;;4.80;99.90;;;;;;5015445;28;20188;-67
2023/01/31 11:45:43;;;;;;;14.67;9.03;;;4.80;99.90;;;;;;5015332;28;20299;-66
2023/01/31 11:48:12;;;;;;;19.47;10.40;;;4.80;99.90;;;;;;5015834;28;20164;-67
2023/01/31 11:50:54;;;;;;;14.30;9.67;;;4.80;99.90;;;;;;5015209;28;20180;-66
2023/01/31 11:53:23;;;;;;;17.93;9.67;;;4.90;99.90;;;;;;5015200;28;20183;-66
2023/01/31 11:55:53;;;;;;;12.90;9.80;;;4.90;99.90;;;;;;5015426;28;20203;-66
2023/01/31 11:58:21;;;;;;;17.37;9.57;;;5.00;99.90;;;;;;5014700;28;20223;-66
2023/01/31 12:01:00;;;;;;;15.73;10.13;;;5.00;99.90;;;;;;5015117;28;20222;-66
2023/01/31 12:03:27;;;;;;;21.20;10.13;;;5.00;99.90;;;;;;5015076;28;20636;-66
2023/01/31 12:06:01;;;;;;;22.00;10.03;;;5.00;99.90;;;;;;5030123;28;20180;-66
2023/01/31 12:08:28;;;;;;;14.40;10.67;;;5.10;99.90;;;;;;5014918;28;20174;-66
2023/01/31 12:10:55;;;;;;;18.90;10.93;;;5.10;99.90;;;;;;5014811;28;20168;-65
2023/01/31 12:13:22;;;;;;;25.97;10.77;;;5.10;99.90;;;;;;5015019;28;20183;-66
2023/01/31 12:16:05;;;;;;;19.63;11.47;;;5.10;99.90;;;;;;5015013;28;20596;-66
2023/01/31 12:18:51;;;;;;;20.17;11.77;;;5.20;99.90;;;;;;5029892;28;20202;-66
2023/01/31 12:21:54;;;;;;;31.03;13.03;;;5.20;99.90;;;;;;4984223;28;20211;-66
2023/01/31 12:24:44;;;;;;;23.23;11.60;;;5.20;99.90;;;;;;5014698;28;20207;-66
2023/01/31 12:27:28;;;;;;;19.17;11.80;;;5.20;99.90;;;;;;5013632;28;20517;-66
2023/01/31 12:30:18;;;;;;;23.53;13.37;;;5.30;99.90;;;;;;5014691;28;20160;-66
2023/01/31 12:33:04;;;;;;;21.77;12.43;;;5.20;99.90;;;;;;5014731;28;20338;-64
2023/01/31 12:35:58;;;;;;;24.67;12.27;;;5.30;99.90;;;;;;5014884;28;20188;-65
2023/01/31 12:38:36;;;;;;;17.83;12.97;;;5.30;99.90;;;;;;5014984;28;20206;-64
2023/01/31 12:41:38;;;;;;;23.63;13.00;;;5.40;99.90;;;;;;5014530;28;20235;-63
2023/01/31 12:44:23;;;;;;;25.03;13.63;;;5.40;99.90;;;;;;5013124;28;20172;-62
2023/01/31 12:47:16;;;;;;;18.23;11.73;;;5.40;99.90;;;;;;5014264;28;20198;-64
2023/01/31 12:50:09;;;;;;;24.73;13.37;;;5.40;99.90;;;;;;5017186;28;20156;-65
2023/01/31 12:52:58;;;;;;;20.87;13.07;;;5.40;99.90;;;;;;5015369;28;20206;-65
2023/01/31 12:55:48;;;;;;;22.30;13.20;;;5.40;99.90;;;;;;5014271;28;20192;-65
2023/01/31 12:58:41;;;;;;;25.47;14.00;;;5.40;99.90;;;;;;5014672;28;20176;-64
2023/01/31 13:01:13;;;;;;;26.30;13.53;;;5.40;99.90;;;;;;5014329;28;20188;-63
2023/01/31 13:04:15;;;;;;;29.57;14.77;;;5.40;99.90;;;;;;5014276;28;20178;-64
2023/01/31 13:06:56;;;;;;;22.70;14.50;;;5.40;99.90;;;;;;5014755;28;20246;-64
2023/01/31 13:09:32;;;;;;;27.30;15.53;;;5.50;99.90;;;;;;5014370;28;20156;-63